»·PEaware :: UAL559 KPHX-KSAN

UAL559 :: KPHX-KSAN

FLIGHT INFORMATION

Flight Status: Arrived
Operator:
United Airlines
More flights by this operator :: More flights under this callsign
Pilot: Anonymous A. (29301)
Aircraft: AIRBUS A320
(A320)
More flights by this aircraft type
Origin: KPHX Phoenix Sky Harbor Intl
United States
Destination: KSAN San Diego Intl-Lindbergh
United States
More flights between these airports :: More routes between these airports
Route: FYRBD1 MOHAK J2 HOGGZ LUCKI1
File this flight plan on PilotEdge
Remarks:
Altitude:
(Current/Filed)
34,000ft
Speed:
(Current/Filed)
270kts
Departed: 28-Apr-20 12:59 PM
Arrived: 28-Apr-20 01:50 PM
Distance/Time
Traveled:
264nm/0:51
Distance/Time
To Go:
Arrived

Flight Plot

Page will automatically refresh every two minutes.

Flight plan parsing failed; only flown route is shown


Map Options




Map Legend


Flown Route
Filed Route
Departure Airport
Arrival Airport
Navaid (VOR, NDB)
Fix

Horizontal Profiles

Position Reports

Time Latitude Longitude Heading Altitude Ground
Speed
28-Apr-20 12:35 33.434508 -112.008194 269 1131ft 0kts
28-Apr-20 12:36 33.434508 -112.008194 269 1131ft 0kts
28-Apr-20 12:37 33.434508 -112.008194 269 1131ft 0kts
28-Apr-20 12:38 33.434508 -112.008194 269 1131ft 0kts
28-Apr-20 12:39 33.434508 -112.008194 269 1131ft 0kts
28-Apr-20 12:40 33.434508 -112.008194 269 1131ft 0kts
28-Apr-20 12:41 33.434508 -112.008194 269 1131ft 0kts
28-Apr-20 12:42 33.434508 -112.008176 270 1131ft 1kts
28-Apr-20 12:43 33.434507 -112.007539 269 1130ft 1kts
28-Apr-20 12:44 33.434508 -112.007519 268 1130ft 0kts
28-Apr-20 12:45 33.434508 -112.007519 268 1130ft 0kts
28-Apr-20 12:46 33.434508 -112.007519 268 1130ft 0kts
28-Apr-20 12:47 33.434508 -112.007519 268 1130ft 0kts
28-Apr-20 12:48 33.434508 -112.007519 268 1130ft 0kts
28-Apr-20 12:49 33.434508 -112.007519 268 1130ft 0kts
28-Apr-20 12:50 33.434508 -112.007519 268 1130ft 0kts
28-Apr-20 12:51 33.434508 -112.007519 268 1130ft 0kts
28-Apr-20 12:52 33.434503 -112.007585 262 1130ft 1kts
28-Apr-20 12:53 33.433487 -112.007587 168 1130ft 7kts
28-Apr-20 12:54 33.432889 -112.010473 269 1128ft 14kts
28-Apr-20 12:55 33.432894 -112.015800 269 1125ft 18kts
28-Apr-20 12:56 33.432892 -112.021452 269 1121ft 19kts
28-Apr-20 12:57 33.432733 -112.026892 215 1118ft 8kts
28-Apr-20 12:58 33.431057 -112.023534 90 1120ft 71kts
28-Apr-20 12:59 33.431589 -111.971117 87 3738ft 191kts
28-Apr-20 13:00 33.434190 -111.894816 90 6698ft 246kts
28-Apr-20 13:01 33.388881 -111.846005 188 7008ft 243kts
28-Apr-20 13:02 33.354300 -111.904850 275 7009ft 248kts
28-Apr-20 13:03 33.362263 -111.994228 272 9476ft 292kts
28-Apr-20 13:04 33.321908 -112.083966 233 12247ft 348kts
28-Apr-20 13:05 33.263087 -112.179018 234 15643ft 362kts
28-Apr-20 13:07 33.202492 -112.277253 235 18564ft 376kts
28-Apr-20 13:08 33.139364 -112.379438 235 20990ft 387kts
28-Apr-20 13:09 33.074229 -112.484612 236 23141ft 403kts
28-Apr-20 13:10 33.006553 -112.593563 236 25127ft 416kts
28-Apr-20 13:11 32.951068 -112.714891 261 26890ft 422kts
28-Apr-20 13:12 32.930811 -112.854073 252 28503ft 436kts
28-Apr-20 13:13 32.897682 -112.994288 264 29836ft 446kts
28-Apr-20 13:14 32.883913 -113.116155 264 30899ft 455kts
28-Apr-20 13:15 32.866734 -113.264288 264 32666ft 450kts
28-Apr-20 13:16 32.849540 -113.411160 265 33957ft 447kts
28-Apr-20 13:17 32.832251 -113.557378 265 33972ft 447kts
28-Apr-20 13:18 32.814357 -113.703656 263 33960ft 448kts
28-Apr-20 13:19 32.793469 -113.849703 263 33957ft 448kts
28-Apr-20 13:20 32.775642 -113.995757 271 33955ft 445kts
28-Apr-20 13:20 32.776891 -114.118196 275 33958ft 443kts
28-Apr-20 13:22 32.783661 -114.289212 275 33953ft 443kts
28-Apr-20 13:23 32.800149 -114.432484 290 33954ft 439kts
28-Apr-20 13:23 32.831811 -114.547325 290 33957ft 438kts
28-Apr-20 13:24 32.869172 -114.683751 289 33941ft 438kts
28-Apr-20 13:26 32.876616 -114.853340 271 33288ft 444kts
28-Apr-20 13:27 32.873227 -115.000399 270 32322ft 447kts
28-Apr-20 13:27 32.870290 -115.124348 270 31500ft 451kts
28-Apr-20 13:28 32.866598 -115.272495 269 29476ft 447kts
28-Apr-20 13:30 32.850855 -115.441083 262 26663ft 433kts
28-Apr-20 13:30 32.833032 -115.556804 260 24930ft 423kts
28-Apr-20 13:31 32.810794 -115.692700 260 23038ft 415kts
28-Apr-20 13:32 32.788822 -115.825961 260 21171ft 406kts
28-Apr-20 13:33 32.777070 -115.957027 266 18851ft 391kts
28-Apr-20 13:34 32.767440 -116.084787 266 16215ft 384kts
28-Apr-20 13:35 32.758052 -116.207468 266 14283ft 359kts
28-Apr-20 13:36 32.749467 -116.318252 266 13142ft 323kts
28-Apr-20 13:37 32.741367 -116.422852 266 11376ft 313kts
28-Apr-20 13:38 32.733422 -116.521463 264 10256ft 287kts
28-Apr-20 13:39 32.724341 -116.614456 264 8809ft 281kts
28-Apr-20 13:40 32.716381 -116.703740 265 7411ft 274kts
28-Apr-20 13:41 32.709456 -116.792822 265 6149ft 264kts
28-Apr-20 13:42 32.690675 -116.871825 250 5567ft 235kts
28-Apr-20 13:43 32.675018 -116.944215 283 4881ft 216kts
28-Apr-20 13:44 32.689218 -117.006119 286 4436ft 165kts
28-Apr-20 13:45 32.700412 -117.052608 287 3458ft 135kts
28-Apr-20 13:46 32.710988 -117.095939 286 2009ft 136kts
28-Apr-20 13:47 32.721206 -117.138622 286 888ft 132kts
28-Apr-20 13:48 32.731314 -117.180412 286 64ft 130kts
28-Apr-20 13:49 32.734104 -117.195345 250 22ft 11kts
28-Apr-20 13:50 32.734012 -117.198031 206 22ft 5kts

Navigation Log

Ident Type
Flight plan parsing failed, navigation log unavailable